sensor_id;sensor_type;location;lat;lon;timestamp;P1;durP1;ratioP1;P2;durP2;ratioP2
1999;SDS011;1001;48.87406500;9.59633600;2023-02-28T00:01:27;3.80;;;3.00;;
1999;SDS011;1001;48.87406500;9.59633600;2023-02-28T00:03:54;6.30;;;3.20;;
1999;SDS011;1001;48.87406500;9.59633600;2023-02-28T00:06:20;5.97;;;2.55;;
1999;SDS011;1001;48.87406500;9.59633600;2023-02-28T00:08:49;3.13;;;2.70;;
1999;SDS011;1001;48.87406500;9.59633600;2023-02-28T00:11:16;4.50;;;3.42;;
1999;SDS011;1001;48.87406500;9.59633600;2023-02-28T00:13:44;3.92;;;3.45;;
1999;SDS011;1001;48.87406500;9.59633600;2023-02-28T00:16:13;8.13;;;3.40;;
1999;SDS011;1001;48.87406500;9.59633600;2023-02-28T00:18:44;3.40;;;3.05;;
1999;SDS011;1001;48.87406500;9.59633600;2023-02-28T00:21:12;4.97;;;3.47;;
1999;SDS011;1001;48.87406500;9.59633600;2023-02-28T00:23:38;4.05;;;3.17;;
1999;SDS011;1001;48.87406500;9.59633600;2023-02-28T00:26:06;5.50;;;3.05;;
1999;SDS011;1001;48.87406500;9.59633600;2023-02-28T00:28:33;4.35;;;3.53;;
1999;SDS011;1001;48.87406500;9.59633600;2023-02-28T00:31:00;5.28;;;4.03;;
1999;SDS011;1001;48.87406500;9.59633600;2023-02-28T00:33:26;7.35;;;3.10;;
1999;SDS011;1001;48.87406500;9.59633600;2023-02-28T00:36:00;5.10;;;3.42;;
1999;SDS011;1001;48.87406500;9.59633600;2023-02-28T00:38:28;2.92;;;1.85;;
1999;SDS011;1001;48.87406500;9.59633600;2023-02-28T00:40:55;5.15;;;3.97;;
1999;SDS011;1001;48.87406500;9.59633600;2023-02-28T00:43:22;5.07;;;4.00;;
1999;SDS011;1001;48.87406500;9.59633600;2023-02-28T00:45:49;4.93;;;3.20;;
1999;SDS011;1001;48.87406500;9.59633600;2023-02-28T00:48:16;6.43;;;4.20;;
1999;SDS011;1001;48.87406500;9.59633600;2023-02-28T00:50:42;6.88;;;4.40;;
1999;SDS011;1001;48.87406500;9.59633600;2023-02-28T00:53:09;4.85;;;3.75;;
1999;SDS011;1001;48.87406500;9.59633600;2023-02-28T00:55:35;4.68;;;3.92;;
1999;SDS011;1001;48.87406500;9.59633600;2023-02-28T00:58:02;6.90;;;4.50;;
1999;SDS011;1001;48.87406500;9.59633600;2023-02-28T01:00:30;5.85;;;4.32;;
1999;SDS011;1001;48.87406500;9.59633600;2023-02-28T01:02:56;4.63;;;3.85;;
1999;SDS011;1001;48.87406500;9.59633600;2023-02-28T01:05:23;5.22;;;4.07;;
1999;SDS011;1001;48.87406500;9.59633600;2023-02-28T01:07:49;6.20;;;3.70;;
1999;SDS011;1001;48.87406500;9.59633600;2023-02-28T01:10:16;5.47;;;4.15;;
1999;SDS011;1001;48.87406500;9.59633600;2023-02-28T01:12:43;6.15;;;3.20;;
1999;SDS011;1001;48.87406500;9.59633600;2023-02-28T01:15:09;6.93;;;5.18;;
1999;SDS011;1001;48.87406500;9.59633600;2023-02-28T01:17:37;6.10;;;4.55;;
1999;SDS011;1001;48.87406500;9.59633600;2023-02-28T01:20:04;5.32;;;3.85;;
1999;SDS011;1001;48.87406500;9.59633600;2023-02-28T01:22:32;3.85;;;3.45;;
1999;SDS011;1001;48.87406500;9.59633600;2023-02-28T01:25:00;5.65;;;4.82;;
1999;SDS011;1001;48.87406500;9.59633600;2023-02-28T01:27:26;6.00;;;4.35;;
1999;SDS011;1001;48.87406500;9.59633600;2023-02-28T01:29:53;6.35;;;4.07;;
1999;SDS011;1001;48.87406500;9.59633600;2023-02-28T01:32:20;4.75;;;4.05;;
1999;SDS011;1001;48.87406500;9.59633600;2023-02-28T01:34:48;5.75;;;4.68;;
1999;SDS011;1001;48.87406500;9.59633600;2023-02-28T01:37:15;8.27;;;4.50;;
1999;SDS011;1001;48.87406500;9.59633600;2023-02-28T01:39:41;7.15;;;5.45;;
1999;SDS011;1001;48.87406500;9.59633600;2023-02-28T01:42:08;4.35;;;3.95;;
1999;SDS011;1001;48.87406500;9.59633600;2023-02-28T01:47:30;5.85;;;4.13;;
1999;SDS011;1001;48.87406500;9.59633600;2023-02-28T01:50:02;4.97;;;4.45;;
1999;SDS011;1001;48.87406500;9.59633600;2023-02-28T01:52:32;7.25;;;4.65;;
1999;SDS011;1001;48.87406500;9.59633600;2023-02-28T01:55:00;5.38;;;4.28;;
1999;SDS011;1001;48.87406500;9.59633600;2023-02-28T01:57:32;5.47;;;4.60;;
1999;SDS011;1001;48.87406500;9.59633600;2023-02-28T02:00:04;6.03;;;5.05;;
1999;SDS011;1001;48.87406500;9.59633600;2023-02-28T02:02:34;6.18;;;4.75;;
1999;SDS011;1001;48.87406500;9.59633600;2023-02-28T02:05:04;7.90;;;5.85;;
1999;SDS011;1001;48.87406500;9.59633600;2023-02-28T02:07:33;4.28;;;3.80;;
1999;SDS011;1001;48.87406500;9.59633600;2023-02-28T02:10:04;7.38;;;4.88;;
1999;SDS011;1001;48.87406500;9.59633600;2023-02-28T02:12:42;6.78;;;4.95;;
1999;SDS011;1001;48.87406500;9.59633600;2023-02-28T02:15:22;5.60;;;4.43;;
1999;SDS011;1001;48.87406500;9.59633600;2023-02-28T02:17:56;7.35;;;5.00;;
1999;SDS011;1001;48.87406500;9.59633600;2023-02-28T02:20:36;6.80;;;5.80;;
1999;SDS011;1001;48.87406500;9.59633600;2023-02-28T02:23:18;6.72;;;5.28;;
1999;SDS011;1001;48.87406500;9.59633600;2023-02-28T02:26:26;7.05;;;4.97;;
1999;SDS011;1001;48.87406500;9.59633600;2023-02-28T02:32:14;9.32;;;4.97;;
1999;SDS011;1001;48.87406500;9.59633600;2023-02-28T02:34:56;7.65;;;4.97;;
1999;SDS011;1001;48.87406500;9.59633600;2023-02-28T02:37:33;11.13;;;6.57;;
1999;SDS011;1001;48.87406500;9.59633600;2023-02-28T02:40:08;7.22;;;5.15;;
1999;SDS011;1001;48.87406500;9.59633600;2023-02-28T02:42:40;5.75;;;4.65;;
1999;SDS011;1001;48.87406500;9.59633600;2023-02-28T02:45:12;6.90;;;5.63;;
1999;SDS011;1001;48.87406500;9.59633600;2023-02-28T02:47:42;5.53;;;5.03;;
1999;SDS011;1001;48.87406500;9.59633600;2023-02-28T02:50:13;6.90;;;6.10;;
1999;SDS011;1001;48.87406500;9.59633600;2023-02-28T02:52:45;5.60;;;5.00;;
1999;SDS011;1001;48.87406500;9.59633600;2023-02-28T02:55:15;6.25;;;5.45;;
1999;SDS011;1001;48.87406500;9.59633600;2023-02-28T02:57:45;6.03;;;5.35;;
1999;SDS011;1001;48.87406500;9.59633600;2023-02-28T03:00:16;9.82;;;5.28;;
1999;SDS011;1001;48.87406500;9.59633600;2023-02-28T03:02:46;7.45;;;5.80;;
1999;SDS011;1001;48.87406500;9.59633600;2023-02-28T03:05:17;6.78;;;5.70;;
1999;SDS011;1001;48.87406500;9.59633600;2023-02-28T03:07:47;6.13;;;4.88;;
1999;SDS011;1001;48.87406500;9.59633600;2023-02-28T03:10:27;6.25;;;5.65;;
1999;SDS011;1001;48.87406500;9.59633600;2023-02-28T03:13:00;9.15;;;6.95;;
1999;SDS011;1001;48.87406500;9.59633600;2023-02-28T03:15:38;8.52;;;5.20;;
1999;SDS011;1001;48.87406500;9.59633600;2023-02-28T03:18:14;7.70;;;6.28;;
1999;SDS011;1001;48.87406500;9.59633600;2023-02-28T03:20:50;6.03;;;4.28;;
1999;SDS011;1001;48.87406500;9.59633600;2023-02-28T03:23:26;6.80;;;5.30;;
1999;SDS011;1001;48.87406500;9.59633600;2023-02-28T03:26:04;7.70;;;5.68;;
1999;SDS011;1001;48.87406500;9.59633600;2023-02-28T03:28:39;6.40;;;5.15;;
1999;SDS011;1001;48.87406500;9.59633600;2023-02-28T03:31:12;7.63;;;6.00;;
1999;SDS011;1001;48.87406500;9.59633600;2023-02-28T03:33:45;8.50;;;6.18;;
1999;SDS011;1001;48.87406500;9.59633600;2023-02-28T03:36:21;6.97;;;6.22;;
1999;SDS011;1001;48.87406500;9.59633600;2023-02-28T03:38:53;6.70;;;5.70;;
1999;SDS011;1001;48.87406500;9.59633600;2023-02-28T03:41:27;9.23;;;6.75;;
1999;SDS011;1001;48.87406500;9.59633600;2023-02-28T03:43:58;10.90;;;6.35;;
1999;SDS011;1001;48.87406500;9.59633600;2023-02-28T03:46:31;6.90;;;6.22;;
1999;SDS011;1001;48.87406500;9.59633600;2023-02-28T03:49:03;6.57;;;5.40;;
1999;SDS011;1001;48.87406500;9.59633600;2023-02-28T03:51:39;7.60;;;5.45;;
1999;SDS011;1001;48.87406500;9.59633600;2023-02-28T03:54:08;6.85;;;5.00;;
1999;SDS011;1001;48.87406500;9.59633600;2023-02-28T03:56:39;7.40;;;5.85;;
1999;SDS011;1001;48.87406500;9.59633600;2023-02-28T03:59:13;5.95;;;5.35;;
1999;SDS011;1001;48.87406500;9.59633600;2023-02-28T04:01:44;7.00;;;6.30;;
1999;SDS011;1001;48.87406500;9.59633600;2023-02-28T04:04:13;7.90;;;5.93;;
1999;SDS011;1001;48.87406500;9.59633600;2023-02-28T04:06:43;10.13;;;6.85;;
1999;SDS011;1001;48.87406500;9.59633600;2023-02-28T04:09:13;7.22;;;6.32;;
1999;SDS011;1001;48.87406500;9.59633600;2023-02-28T04:11:41;8.85;;;6.32;;
1999;SDS011;1001;48.87406500;9.59633600;2023-02-28T04:14:10;10.48;;;6.00;;
1999;SDS011;1001;48.87406500;9.59633600;2023-02-28T04:16:38;7.85;;;6.20;;
1999;SDS011;1001;48.87406500;9.59633600;2023-02-28T04:19:07;7.43;;;5.40;;
1999;SDS011;1001;48.87406500;9.59633600;2023-02-28T04:21:36;8.82;;;6.22;;
1999;SDS011;1001;48.87406500;9.59633600;2023-02-28T04:24:06;7.10;;;5.40;;
1999;SDS011;1001;48.87406500;9.59633600;2023-02-28T04:26:34;7.55;;;5.93;;
1999;SDS011;1001;48.87406500;9.59633600;2023-02-28T04:29:02;10.98;;;7.03;;
1999;SDS011;1001;48.87406500;9.59633600;2023-02-28T04:31:30;8.13;;;6.55;;
1999;SDS011;1001;48.87406500;9.59633600;2023-02-28T04:33:57;7.80;;;5.90;;
1999;SDS011;1001;48.87406500;9.59633600;2023-02-28T04:36:24;10.85;;;7.15;;
1999;SDS011;1001;48.87406500;9.59633600;2023-02-28T04:38:50;9.63;;;6.32;;
1999;SDS011;1001;48.87406500;9.59633600;2023-02-28T04:41:18;10.13;;;6.47;;
1999;SDS011;1001;48.87406500;9.59633600;2023-02-28T04:43:45;7.30;;;5.28;;
1999;SDS011;1001;48.87406500;9.59633600;2023-02-28T04:46:12;8.68;;;6.05;;
1999;SDS011;1001;48.87406500;9.59633600;2023-02-28T04:48:39;8.93;;;7.43;;
1999;SDS011;1001;48.87406500;9.59633600;2023-02-28T04:51:07;13.73;;;8.88;;
1999;SDS011;1001;48.87406500;9.59633600;2023-02-28T04:53:35;11.05;;;7.93;;
1999;SDS011;1001;48.87406500;9.59633600;2023-02-28T04:56:02;8.88;;;6.47;;
1999;SDS011;1001;48.87406500;9.59633600;2023-02-28T04:58:30;8.30;;;6.43;;
1999;SDS011;1001;48.87406500;9.59633600;2023-02-28T05:01:01;8.93;;;6.20;;
1999;SDS011;1001;48.87406500;9.59633600;2023-02-28T05:03:28;9.18;;;6.07;;
1999;SDS011;1001;48.87406500;9.59633600;2023-02-28T05:05:55;11.88;;;6.18;;
1999;SDS011;1001;48.87406500;9.59633600;2023-02-28T05:08:22;7.97;;;5.90;;
1999;SDS011;1001;48.87406500;9.59633600;2023-02-28T05:10:48;7.00;;;5.50;;
1999;SDS011;1001;48.87406500;9.59633600;2023-02-28T05:13:15;8.23;;;7.18;;
1999;SDS011;1001;48.87406500;9.59633600;2023-02-28T05:15:43;9.52;;;6.57;;
1999;SDS011;1001;48.87406500;9.59633600;2023-02-28T05:18:09;9.52;;;6.07;;
1999;SDS011;1001;48.87406500;9.59633600;2023-02-28T05:20:36;9.00;;;6.25;;
1999;SDS011;1001;48.87406500;9.59633600;2023-02-28T05:23:02;12.43;;;6.95;;
1999;SDS011;1001;48.87406500;9.59633600;2023-02-28T05:25:29;7.88;;;6.38;;
1999;SDS011;1001;48.87406500;9.59633600;2023-02-28T05:27:56;9.30;;;5.82;;
1999;SDS011;1001;48.87406500;9.59633600;2023-02-28T05:30:22;10.55;;;7.95;;
1999;SDS011;1001;48.87406500;9.59633600;2023-02-28T05:32:51;11.57;;;7.82;;
1999;SDS011;1001;48.87406500;9.59633600;2023-02-28T05:35:17;11.57;;;7.97;;
1999;SDS011;1001;48.87406500;9.59633600;2023-02-28T05:37:44;8.00;;;6.05;;
1999;SDS011;1001;48.87406500;9.59633600;2023-02-28T05:40:11;9.95;;;6.60;;
1999;SDS011;1001;48.87406500;9.59633600;2023-02-28T05:42:38;8.93;;;7.82;;
1999;SDS011;1001;48.87406500;9.59633600;2023-02-28T05:45:05;10.40;;;7.10;;
1999;SDS011;1001;48.87406500;9.59633600;2023-02-28T05:47:33;12.30;;;5.72;;
1999;SDS011;1001;48.87406500;9.59633600;2023-02-28T05:50:01;8.35;;;6.88;;
1999;SDS011;1001;48.87406500;9.59633600;2023-02-28T05:52:27;8.25;;;6.00;;
1999;SDS011;1001;48.87406500;9.59633600;2023-02-28T05:54:55;14.35;;;8.77;;
1999;SDS011;1001;48.87406500;9.59633600;2023-02-28T05:57:21;8.48;;;6.70;;
1999;SDS011;1001;48.87406500;9.59633600;2023-02-28T05:59:48;8.50;;;6.85;;
1999;SDS011;1001;48.87406500;9.59633600;2023-02-28T06:02:16;8.45;;;6.65;;
1999;SDS011;1001;48.87406500;9.59633600;2023-02-28T06:04:43;11.13;;;8.57;;
1999;SDS011;1001;48.87406500;9.59633600;2023-02-28T06:07:12;9.43;;;7.85;;
1999;SDS011;1001;48.87406500;9.59633600;2023-02-28T06:09:38;10.60;;;6.63;;
1999;SDS011;1001;48.87406500;9.59633600;2023-02-28T06:12:05;10.18;;;6.68;;
1999;SDS011;1001;48.87406500;9.59633600;2023-02-28T06:14:34;12.50;;;8.75;;
1999;SDS011;1001;48.87406500;9.59633600;2023-02-28T06:17:02;10.27;;;6.93;;
1999;SDS011;1001;48.87406500;9.59633600;2023-02-28T06:19:29;11.35;;;8.18;;
1999;SDS011;1001;48.87406500;9.59633600;2023-02-28T06:21:56;11.75;;;6.25;;
1999;SDS011;1001;48.87406500;9.59633600;2023-02-28T06:24:26;9.70;;;6.68;;
1999;SDS011;1001;48.87406500;9.59633600;2023-02-28T06:26:53;12.38;;;6.07;;
1999;SDS011;1001;48.87406500;9.59633600;2023-02-28T06:29:20;9.35;;;7.13;;
1999;SDS011;1001;48.87406500;9.59633600;2023-02-28T06:31:47;10.75;;;6.30;;
1999;SDS011;1001;48.87406500;9.59633600;2023-02-28T06:34:14;10.40;;;8.55;;
1999;SDS011;1001;48.87406500;9.59633600;2023-02-28T06:36:41;13.32;;;7.90;;
1999;SDS011;1001;48.87406500;9.59633600;2023-02-28T06:39:08;10.93;;;8.07;;
1999;SDS011;1001;48.87406500;9.59633600;2023-02-28T06:41:37;11.13;;;7.25;;
1999;SDS011;1001;48.87406500;9.59633600;2023-02-28T06:44:05;10.80;;;7.25;;
1999;SDS011;1001;48.87406500;9.59633600;2023-02-28T06:46:31;8.57;;;7.35;;
1999;SDS011;1001;48.87406500;9.59633600;2023-02-28T06:48:58;11.52;;;8.65;;
1999;SDS011;1001;48.87406500;9.59633600;2023-02-28T06:51:25;12.82;;;8.63;;
1999;SDS011;1001;48.87406500;9.59633600;2023-02-28T06:53:52;10.07;;;8.35;;
1999;SDS011;1001;48.87406500;9.59633600;2023-02-28T06:56:18;14.82;;;7.38;;
1999;SDS011;1001;48.87406500;9.59633600;2023-02-28T06:58:47;13.05;;;8.05;;
1999;SDS011;1001;48.87406500;9.59633600;2023-02-28T07:01:15;11.48;;;7.15;;
1999;SDS011;1001;48.87406500;9.59633600;2023-02-28T07:03:42;7.75;;;6.00;;
1999;SDS011;1001;48.87406500;9.59633600;2023-02-28T07:06:09;9.63;;;8.10;;
1999;SDS011;1001;48.87406500;9.59633600;2023-02-28T07:08:35;9.20;;;6.45;;
1999;SDS011;1001;48.87406500;9.59633600;2023-02-28T07:11:02;9.63;;;8.52;;
1999;SDS011;1001;48.87406500;9.59633600;2023-02-28T07:13:30;11.15;;;8.27;;
1999;SDS011;1001;48.87406500;9.59633600;2023-02-28T07:15:58;11.52;;;7.53;;
1999;SDS011;1001;48.87406500;9.59633600;2023-02-28T07:18:26;11.93;;;7.50;;
1999;SDS011;1001;48.87406500;9.59633600;2023-02-28T07:20:53;9.38;;;7.18;;
1999;SDS011;1001;48.87406500;9.59633600;2023-02-28T07:23:20;9.73;;;8.70;;
1999;SDS011;1001;48.87406500;9.59633600;2023-02-28T07:25:47;12.13;;;8.95;;
1999;SDS011;1001;48.87406500;9.59633600;2023-02-28T07:28:15;11.52;;;7.93;;
1999;SDS011;1001;48.87406500;9.59633600;2023-02-28T07:30:42;10.35;;;8.27;;
1999;SDS011;1001;48.87406500;9.59633600;2023-02-28T07:33:10;13.98;;;8.50;;
1999;SDS011;1001;48.87406500;9.59633600;2023-02-28T07:35:36;14.88;;;8.52;;
1999;SDS011;1001;48.87406500;9.59633600;2023-02-28T07:38:03;10.60;;;7.80;;
1999;SDS011;1001;48.87406500;9.59633600;2023-02-28T07:40:30;11.35;;;8.52;;
1999;SDS011;1001;48.87406500;9.59633600;2023-02-28T07:42:58;12.38;;;6.25;;
1999;SDS011;1001;48.87406500;9.59633600;2023-02-28T07:45:25;10.13;;;8.07;;
1999;SDS011;1001;48.87406500;9.59633600;2023-02-28T07:47:53;11.75;;;9.30;;
1999;SDS011;1001;48.87406500;9.59633600;2023-02-28T07:50:22;8.95;;;7.82;;
1999;SDS011;1001;48.87406500;9.59633600;2023-02-28T07:52:49;10.43;;;7.53;;
1999;SDS011;1001;48.87406500;9.59633600;2023-02-28T07:55:15;11.13;;;8.60;;
1999;SDS011;1001;48.87406500;9.59633600;2023-02-28T07:57:43;11.07;;;8.15;;
1999;SDS011;1001;48.87406500;9.59633600;2023-02-28T08:00:10;12.25;;;8.07;;
1999;SDS011;1001;48.87406500;9.59633600;2023-02-28T08:02:38;11.13;;;8.55;;
1999;SDS011;1001;48.87406500;9.59633600;2023-02-28T08:05:05;13.25;;;8.40;;
1999;SDS011;1001;48.87406500;9.59633600;2023-02-28T08:07:34;11.07;;;9.27;;
1999;SDS011;1001;48.87406500;9.59633600;2023-02-28T08:10:01;11.13;;;8.63;;
1999;SDS011;1001;48.87406500;9.59633600;2023-02-28T08:12:27;11.75;;;6.90;;
1999;SDS011;1001;48.87406500;9.59633600;2023-02-28T08:14:54;10.32;;;8.65;;
1999;SDS011;1001;48.87406500;9.59633600;2023-02-28T08:17:21;11.57;;;7.90;;
1999;SDS011;1001;48.87406500;9.59633600;2023-02-28T08:19:47;13.63;;;8.70;;
1999;SDS011;1001;48.87406500;9.59633600;2023-02-28T08:22:14;9.68;;;7.50;;
1999;SDS011;1001;48.87406500;9.59633600;2023-02-28T08:24:42;12.32;;;9.00;;
1999;SDS011;1001;48.87406500;9.59633600;2023-02-28T08:27:09;11.27;;;8.27;;
1999;SDS011;1001;48.87406500;9.59633600;2023-02-28T08:29:36;10.25;;;6.97;;
1999;SDS011;1001;48.87406500;9.59633600;2023-02-28T08:32:03;10.65;;;7.57;;
1999;SDS011;1001;48.87406500;9.59633600;2023-02-28T08:34:30;11.63;;;7.80;;
1999;SDS011;1001;48.87406500;9.59633600;2023-02-28T08:36:56;12.52;;;8.35;;
1999;SDS011;1001;48.87406500;9.59633600;2023-02-28T08:39:23;11.20;;;8.82;;
1999;SDS011;1001;48.87406500;9.59633600;2023-02-28T08:41:51;9.73;;;6.60;;
1999;SDS011;1001;48.87406500;9.59633600;2023-02-28T08:44:18;10.40;;;7.00;;
1999;SDS011;1001;48.87406500;9.59633600;2023-02-28T08:46:45;10.05;;;8.23;;
1999;SDS011;1001;48.87406500;9.59633600;2023-02-28T08:49:12;11.52;;;8.75;;
1999;SDS011;1001;48.87406500;9.59633600;2023-02-28T08:51:38;11.38;;;9.07;;
1999;SDS011;1001;48.87406500;9.59633600;2023-02-28T08:54:05;10.05;;;7.35;;
1999;SDS011;1001;48.87406500;9.59633600;2023-02-28T08:56:32;15.10;;;10.05;;
1999;SDS011;1001;48.87406500;9.59633600;2023-02-28T08:59:00;10.50;;;7.10;;
1999;SDS011;1001;48.87406500;9.59633600;2023-02-28T09:01:27;9.73;;;7.70;;
1999;SDS011;1001;48.87406500;9.59633600;2023-02-28T09:03:55;13.18;;;9.68;;
1999;SDS011;1001;48.87406500;9.59633600;2023-02-28T09:06:23;13.38;;;9.30;;
1999;SDS011;1001;48.87406500;9.59633600;2023-02-28T09:08:51;12.38;;;8.93;;
1999;SDS011;1001;48.87406500;9.59633600;2023-02-28T09:11:17;10.25;;;9.20;;
1999;SDS011;1001;48.87406500;9.59633600;2023-02-28T09:13:45;10.20;;;9.02;;
1999;SDS011;1001;48.87406500;9.59633600;2023-02-28T09:16:14;12.85;;;9.40;;
1999;SDS011;1001;48.87406500;9.59633600;2023-02-28T09:18:41;11.93;;;9.10;;
1999;SDS011;1001;48.87406500;9.59633600;2023-02-28T09:21:09;11.10;;;9.40;;
1999;SDS011;1001;48.87406500;9.59633600;2023-02-28T09:23:39;11.85;;;9.55;;
1999;SDS011;1001;48.87406500;9.59633600;2023-02-28T09:26:05;12.52;;;7.55;;
1999;SDS011;1001;48.87406500;9.59633600;2023-02-28T09:28:33;12.25;;;9.77;;
1999;SDS011;1001;48.87406500;9.59633600;2023-02-28T09:30:59;10.07;;;8.98;;
1999;SDS011;1001;48.87406500;9.59633600;2023-02-28T09:33:27;11.82;;;8.02;;
1999;SDS011;1001;48.87406500;9.59633600;2023-02-28T09:35:57;10.93;;;7.38;;
1999;SDS011;1001;48.87406500;9.59633600;2023-02-28T09:38:24;11.45;;;9.68;;
1999;SDS011;1001;48.87406500;9.59633600;2023-02-28T09:40:53;10.43;;;8.20;;
1999;SDS011;1001;48.87406500;9.59633600;2023-02-28T09:43:22;11.50;;;9.95;;
1999;SDS011;1001;48.87406500;9.59633600;2023-02-28T09:45:51;8.77;;;7.63;;
1999;SDS011;1001;48.87406500;9.59633600;2023-02-28T09:48:24;10.00;;;7.72;;
1999;SDS011;1001;48.87406500;9.59633600;2023-02-28T09:51:02;11.23;;;8.15;;
1999;SDS011;1001;48.87406500;9.59633600;2023-02-28T09:53:31;11.32;;;9.88;;
1999;SDS011;1001;48.87406500;9.59633600;2023-02-28T09:56:01;10.07;;;8.05;;
1999;SDS011;1001;48.87406500;9.59633600;2023-02-28T09:58:32;12.95;;;10.23;;
1999;SDS011;1001;48.87406500;9.59633600;2023-02-28T10:01:05;14.35;;;10.05;;
1999;SDS011;1001;48.87406500;9.59633600;2023-02-28T10:03:40;12.98;;;9.68;;
1999;SDS011;1001;48.87406500;9.59633600;2023-02-28T10:06:13;10.53;;;8.80;;
1999;SDS011;1001;48.87406500;9.59633600;2023-02-28T10:08:45;11.37;;;9.50;;
1999;SDS011;1001;48.87406500;9.59633600;2023-02-28T10:11:22;9.20;;;8.23;;
1999;SDS011;1001;48.87406500;9.59633600;2023-02-28T10:13:52;10.83;;;8.30;;
1999;SDS011;1001;48.87406500;9.59633600;2023-02-28T10:16:27;14.97;;;9.27;;
1999;SDS011;1001;48.87406500;9.59633600;2023-02-28T10:18:59;10.70;;;9.10;;
1999;SDS011;1001;48.87406500;9.59633600;2023-02-28T10:21:31;9.70;;;7.97;;
1999;SDS011;1001;48.87406500;9.59633600;2023-02-28T10:24:03;9.70;;;8.03;;
1999;SDS011;1001;48.87406500;9.59633600;2023-02-28T10:26:37;12.50;;;9.00;;
1999;SDS011;1001;48.87406500;9.59633600;2023-02-28T10:29:03;10.30;;;7.57;;
1999;SDS011;1001;48.87406500;9.59633600;2023-02-28T10:31:30;9.00;;;8.00;;
1999;SDS011;1001;48.87406500;9.59633600;2023-02-28T10:33:56;13.00;;;8.47;;
1999;SDS011;1001;48.87406500;9.59633600;2023-02-28T10:36:24;11.10;;;9.27;;
1999;SDS011;1001;48.87406500;9.59633600;2023-02-28T10:38:51;10.93;;;7.90;;
1999;SDS011;1001;48.87406500;9.59633600;2023-02-28T10:41:26;12.40;;;8.67;;
1999;SDS011;1001;48.87406500;9.59633600;2023-02-28T10:44:13;11.30;;;9.20;;
1999;SDS011;1001;48.87406500;9.59633600;2023-02-28T10:46:44;14.30;;;10.13;;
1999;SDS011;1001;48.87406500;9.59633600;2023-02-28T10:49:15;12.37;;;8.97;;
1999;SDS011;1001;48.87406500;9.59633600;2023-02-28T10:51:47;15.60;;;12.23;;
1999;SDS011;1001;48.87406500;9.59633600;2023-02-28T10:54:18;11.63;;;8.90;;
1999;SDS011;1001;48.87406500;9.59633600;2023-02-28T10:56:54;13.67;;;10.20;;
1999;SDS011;1001;48.87406500;9.59633600;2023-02-28T10:59:32;14.97;;;9.80;;
1999;SDS011;1001;48.87406500;9.59633600;2023-02-28T11:01:58;13.70;;;9.53;;
1999;SDS011;1001;48.87406500;9.59633600;2023-02-28T11:04:32;12.70;;;9.40;;
1999;SDS011;1001;48.87406500;9.59633600;2023-02-28T11:07:05;13.83;;;9.00;;
1999;SDS011;1001;48.87406500;9.59633600;2023-02-28T11:09:44;11.20;;;8.50;;
1999;SDS011;1001;48.87406500;9.59633600;2023-02-28T11:12:19;11.23;;;9.10;;
1999;SDS011;1001;48.87406500;9.59633600;2023-02-28T11:14:49;11.40;;;9.70;;
1999;SDS011;1001;48.87406500;9.59633600;2023-02-28T11:17:19;9.57;;;8.50;;
1999;SDS011;1001;48.87406500;9.59633600;2023-02-28T11:19:50;11.50;;;8.60;;
1999;SDS011;1001;48.87406500;9.59633600;2023-02-28T11:22:21;11.32;;;9.57;;
1999;SDS011;1001;48.87406500;9.59633600;2023-02-28T11:24:49;11.50;;;7.90;;
1999;SDS011;1001;48.87406500;9.59633600;2023-02-28T11:30:23;14.13;;;8.87;;
1999;SDS011;1001;48.87406500;9.59633600;2023-02-28T11:32:51;13.73;;;9.37;;
1999;SDS011;1001;48.87406500;9.59633600;2023-02-28T11:35:19;12.90;;;7.87;;
1999;SDS011;1001;48.87406500;9.59633600;2023-02-28T11:37:51;13.47;;;10.03;;
1999;SDS011;1001;48.87406500;9.59633600;2023-02-28T11:40:19;12.17;;;9.00;;
1999;SDS011;1001;48.87406500;9.59633600;2023-02-28T11:42:57;11.37;;;10.10;;
1999;SDS011;1001;48.87406500;9.59633600;2023-02-28T11:45:34;12.73;;;8.90;;
1999;SDS011;1001;48.87406500;9.59633600;2023-02-28T11:48:11;14.70;;;8.87;;
1999;SDS011;1001;48.87406500;9.59633600;2023-02-28T11:50:46;14.90;;;10.00;;
1999;SDS011;1001;48.87406500;9.59633600;2023-02-28T11:53:25;12.50;;;8.70;;
1999;SDS011;1001;48.87406500;9.59633600;2023-02-28T11:56:06;13.60;;;10.80;;
1999;SDS011;1001;48.87406500;9.59633600;2023-02-28T11:58:42;11.70;;;9.40;;
1999;SDS011;1001;48.87406500;9.59633600;2023-02-28T12:01:19;9.83;;;8.70;;
1999;SDS011;1001;48.87406500;9.59633600;2023-02-28T12:03:56;12.87;;;9.00;;
1999;SDS011;1001;48.87406500;9.59633600;2023-02-28T12:06:28;9.10;;;7.77;;
1999;SDS011;1001;48.87406500;9.59633600;2023-02-28T12:09:04;11.07;;;7.73;;
1999;SDS011;1001;48.87406500;9.59633600;2023-02-28T12:11:46;10.13;;;8.50;;
1999;SDS011;1001;48.87406500;9.59633600;2023-02-28T12:14:36;11.63;;;8.67;;
1999;SDS011;1001;48.87406500;9.59633600;2023-02-28T12:17:30;11.17;;;9.37;;
1999;SDS011;1001;48.87406500;9.59633600;2023-02-28T12:20:06;10.00;;;8.97;;
1999;SDS011;1001;48.87406500;9.59633600;2023-02-28T12:22:45;11.70;;;8.77;;
1999;SDS011;1001;48.87406500;9.59633600;2023-02-28T12:28:21;10.67;;;8.63;;
1999;SDS011;1001;48.87406500;9.59633600;2023-02-28T12:30:53;8.47;;;7.63;;
1999;SDS011;1001;48.87406500;9.59633600;2023-02-28T12:33:24;10.93;;;8.13;;
1999;SDS011;1001;48.87406500;9.59633600;2023-02-28T12:35:55;12.60;;;9.33;;
1999;SDS011;1001;48.87406500;9.59633600;2023-02-28T12:38:23;11.23;;;8.13;;
1999;SDS011;1001;48.87406500;9.59633600;2023-02-28T12:40:54;11.77;;;8.80;;
1999;SDS011;1001;48.87406500;9.59633600;2023-02-28T12:43:27;10.00;;;8.53;;
1999;SDS011;1001;48.87406500;9.59633600;2023-02-28T12:45:59;10.63;;;8.03;;
1999;SDS011;1001;48.87406500;9.59633600;2023-02-28T12:48:33;11.93;;;9.20;;
1999;SDS011;1001;48.87406500;9.59633600;2023-02-28T12:51:06;9.43;;;7.20;;
1999;SDS011;1001;48.87406500;9.59633600;2023-02-28T12:53:35;11.73;;;8.70;;
1999;SDS011;1001;48.87406500;9.59633600;2023-02-28T12:56:15;10.70;;;7.50;;
1999;SDS011;1001;48.87406500;9.59633600;2023-02-28T12:58:45;11.33;;;7.60;;
1999;SDS011;1001;48.87406500;9.59633600;2023-02-28T13:01:20;10.60;;;8.30;;
1999;SDS011;1001;48.87406500;9.59633600;2023-02-28T13:04:05;12.80;;;9.00;;
1999;SDS011;1001;48.87406500;9.59633600;2023-02-28T13:06:56;9.67;;;8.00;;
1999;SDS011;1001;48.87406500;9.59633600;2023-02-28T13:09:34;10.27;;;8.17;;
1999;SDS011;1001;48.87406500;9.59633600;2023-02-28T13:12:04;9.27;;;7.13;;
1999;SDS011;1001;48.87406500;9.59633600;2023-02-28T13:14:39;10.23;;;8.60;;
1999;SDS011;1001;48.87406500;9.59633600;2023-02-28T13:17:10;8.73;;;7.60;;
1999;SDS011;1001;48.87406500;9.59633600;2023-02-28T13:19:39;10.30;;;8.53;;
1999;SDS011;1001;48.87406500;9.59633600;2023-02-28T13:22:16;11.50;;;8.90;;
1999;SDS011;1001;48.87406500;9.59633600;2023-02-28T13:24:45;10.10;;;7.80;;
1999;SDS011;1001;48.87406500;9.59633600;2023-02-28T13:33:22;12.03;;;8.37;;
1999;SDS011;1001;48.87406500;9.59633600;2023-02-28T13:36:01;10.83;;;7.50;;
1999;SDS011;1001;48.87406500;9.59633600;2023-02-28T13:38:38;8.70;;;7.77;;